createdAt,value
2016-03-27T00:00:15.499Z,0
2016-03-27T00:01:15.504Z,0
2016-03-27T00:02:15.507Z,0
2016-03-27T00:03:15.494Z,0
2016-03-27T00:04:15.513Z,0
2016-03-27T00:05:15.499Z,0
2016-03-27T00:06:15.518Z,0
2016-03-27T00:07:15.505Z,0
2016-03-27T00:08:15.492Z,0
2016-03-27T00:09:15.494Z,0
2016-03-27T00:10:15.497Z,0
2016-03-27T00:11:15.485Z,0
2016-03-27T00:12:15.487Z,0
2016-03-27T00:13:15.490Z,0
2016-03-27T00:14:15.476Z,0
2016-03-27T00:15:15.495Z,0
2016-03-27T00:16:15.512Z,0
2016-03-27T00:17:15.479Z,0
2016-03-27T00:18:15.483Z,0
2016-03-27T00:19:15.471Z,0
2016-03-27T00:20:15.442Z,0
2016-03-27T00:21:15.430Z,0
2016-03-27T00:22:15.421Z,0
2016-03-27T00:23:15.402Z,0
2016-03-27T00:24:15.400Z,0
2016-03-27T00:25:15.397Z,0
2016-03-27T00:26:15.394Z,0
2016-03-27T00:27:15.393Z,0
2016-03-27T00:28:15.378Z,0
2016-03-27T00:29:15.394Z,0
2016-03-27T00:30:15.379Z,0
2016-03-27T00:31:15.395Z,0
2016-03-27T00:32:15.380Z,0
2016-03-27T00:33:15.366Z,0
2016-03-27T00:34:15.384Z,0
2016-03-27T00:35:15.370Z,0
2016-03-27T00:36:15.387Z,0
2016-03-27T00:37:15.374Z,0
2016-03-27T00:38:15.377Z,0
2016-03-27T00:39:15.365Z,0
2016-03-27T00:40:15.382Z,0
2016-03-27T00:41:15.385Z,0
2016-03-27T00:42:15.372Z,0
2016-03-27T00:43:15.376Z,0
2016-03-27T00:44:15.378Z,0
2016-03-27T00:45:15.380Z,0
2016-03-27T00:46:15.836Z,0
2016-03-27T00:47:15.370Z,0
2016-03-27T00:48:15.373Z,0
2016-03-27T00:49:15.359Z,0
2016-03-27T00:50:16.956Z,0
2016-03-27T00:51:15.365Z,0
2016-03-27T00:52:15.368Z,0
2016-03-27T00:53:15.386Z,0
2016-03-27T00:54:15.372Z,0
2016-03-27T00:55:15.392Z,0
2016-03-27T00:56:15.363Z,0
2016-03-27T00:57:15.350Z,0
2016-03-27T00:58:15.369Z,0
2016-03-27T00:59:15.355Z,0
2016-03-27T01:00:15.358Z,0
2016-03-27T01:01:15.361Z,0
2016-03-27T01:02:15.347Z,0
2016-03-27T01:03:15.366Z,0
2016-03-27T01:04:15.369Z,0
2016-03-27T01:05:15.371Z,0
2016-03-27T01:06:15.375Z,0
2016-03-27T01:07:15.221Z,0
2016-03-27T01:08:15.383Z,0
2016-03-27T01:09:15.370Z,0
2016-03-27T01:10:15.373Z,0
2016-03-27T01:11:15.360Z,0
2016-03-27T01:12:15.364Z,0
2016-03-27T01:13:15.350Z,0
2016-03-27T01:14:15.352Z,0
2016-03-27T01:15:15.356Z,0
2016-03-27T01:16:15.358Z,0
2016-03-27T01:17:15.360Z,0
2016-03-27T01:18:15.380Z,0
2016-03-27T01:19:15.366Z,0
2016-03-27T01:20:15.353Z,0
2016-03-27T01:21:15.356Z,0
2016-03-27T01:22:15.358Z,0
2016-03-27T01:23:15.346Z,0
2016-03-27T01:24:15.364Z,0
2016-03-27T01:25:15.351Z,0
2016-03-27T01:26:15.353Z,0
2016-03-27T01:27:15.357Z,0
2016-03-27T01:28:15.359Z,0
2016-03-27T01:29:15.362Z,0
2016-03-27T01:30:15.365Z,0
2016-03-27T01:31:15.367Z,0
2016-03-27T01:32:15.354Z,0
2016-03-27T01:33:15.357Z,0
2016-03-27T01:34:15.359Z,0
2016-03-27T01:35:15.362Z,0
2016-03-27T01:36:15.365Z,0
2016-03-27T01:37:15.367Z,0
2016-03-27T01:38:15.370Z,0
2016-03-27T01:39:15.358Z,0
2016-03-27T01:40:15.345Z,0
2016-03-27T01:41:15.348Z,0
2016-03-27T01:42:15.350Z,0
2016-03-27T01:43:15.352Z,0
2016-03-27T01:44:15.371Z,0
2016-03-27T01:45:15.358Z,0
2016-03-27T01:46:15.189Z,0
2016-03-27T01:47:15.363Z,0
2016-03-27T01:48:15.366Z,0
2016-03-27T01:49:15.353Z,0
2016-03-27T01:50:15.356Z,0
2016-03-27T01:51:15.358Z,0
2016-03-27T01:52:15.346Z,0
2016-03-27T01:53:15.349Z,0
2016-03-27T01:54:15.351Z,0
2016-03-27T01:55:15.354Z,0
2016-03-27T01:56:15.341Z,0
2016-03-27T01:57:15.359Z,0
2016-03-27T01:58:15.346Z,0
2016-03-27T01:59:15.349Z,0
2016-03-27T02:00:15.335Z,0
2016-03-27T02:01:15.354Z,0
2016-03-27T02:02:15.341Z,0
2016-03-27T02:03:15.359Z,0
2016-03-27T02:04:15.363Z,0
2016-03-27T02:05:15.349Z,0
2016-03-27T02:06:15.334Z,0
2016-03-27T02:07:15.159Z,0
2016-03-27T02:08:15.191Z,0
2016-03-27T02:09:15.193Z,0
2016-03-27T02:10:17.520Z,0
2016-03-27T02:11:15.350Z,0
2016-03-27T02:12:15.337Z,0
2016-03-27T02:13:15.323Z,0
2016-03-27T02:14:15.343Z,0
2016-03-27T02:15:15.361Z,0
2016-03-27T02:16:15.347Z,0
2016-03-27T02:17:15.475Z,0
2016-03-27T02:18:15.337Z,0
2016-03-27T02:19:15.340Z,0
2016-03-27T02:20:15.343Z,0
2016-03-27T02:21:15.345Z,0
2016-03-27T02:22:15.333Z,0
2016-03-27T02:23:15.336Z,0
2016-03-27T02:24:15.338Z,0
2016-03-27T02:25:15.355Z,0
2016-03-27T02:26:15.343Z,0
2016-03-27T02:27:15.346Z,0
2016-03-27T02:28:15.349Z,0
2016-03-27T02:29:15.336Z,0
2016-03-27T02:30:15.323Z,0
2016-03-27T02:31:15.326Z,0
2016-03-27T02:32:15.329Z,0
2016-03-27T02:33:15.331Z,0
2016-03-27T02:34:15.334Z,0
2016-03-27T02:35:15.320Z,0
2016-03-27T02:36:15.324Z,0
2016-03-27T02:37:15.326Z,0
2016-03-27T02:38:15.329Z,0
2016-03-27T02:39:15.332Z,0
2016-03-27T02:40:15.334Z,0
2016-03-27T02:41:15.337Z,0
2016-03-27T02:42:15.340Z,0
2016-03-27T02:43:15.326Z,0
2016-03-27T02:44:15.345Z,0
2016-03-27T02:45:15.347Z,0
2016-03-27T02:46:15.350Z,0
2016-03-27T02:47:15.337Z,0
2016-03-27T02:48:15.340Z,0
2016-03-27T02:49:15.170Z,0
2016-03-27T02:50:15.330Z,0
2016-03-27T02:51:15.161Z,0
2016-03-27T02:52:15.319Z,0
2016-03-27T02:53:15.322Z,0
2016-03-27T02:54:15.325Z,0
2016-03-27T02:55:15.327Z,0
2016-03-27T02:56:15.314Z,0
2016-03-27T02:57:15.333Z,0
2016-03-27T02:58:15.319Z,0
2016-03-27T02:59:15.339Z,0
2016-03-27T03:00:15.325Z,0
2016-03-27T03:01:15.312Z,0
2016-03-27T03:02:15.394Z,0
2016-03-27T03:03:15.318Z,0
2016-03-27T03:04:15.321Z,0
2016-03-27T03:05:15.324Z,0
2016-03-27T03:06:15.310Z,0
2016-03-27T03:07:15.313Z,0
2016-03-27T03:08:15.316Z,0
2016-03-27T03:09:15.303Z,0
2016-03-27T03:10:15.305Z,0
2016-03-27T03:11:15.309Z,0
2016-03-27T03:12:15.311Z,0
2016-03-27T03:13:15.329Z,0
2016-03-27T03:14:15.317Z,0
2016-03-27T03:15:15.334Z,0
2016-03-27T03:16:15.322Z,0
2016-03-27T03:17:15.606Z,0
2016-03-27T03:18:15.311Z,0
2016-03-27T03:19:15.314Z,0
2016-03-27T03:20:15.317Z,0
2016-03-27T03:21:15.319Z,0
2016-03-27T03:22:15.307Z,0
2016-03-27T03:23:15.309Z,0
2016-03-27T03:24:15.296Z,0
2016-03-27T03:25:15.300Z,0
2016-03-27T03:26:15.302Z,0
2016-03-27T03:27:15.305Z,0
2016-03-27T03:28:15.322Z,0
2016-03-27T03:29:15.325Z,0
2016-03-27T03:30:15.312Z,0
2016-03-27T03:31:15.316Z,0
2016-03-27T03:32:15.349Z,0
2016-03-27T03:33:15.304Z,0
2016-03-27T03:34:15.308Z,0
2016-03-27T03:35:15.294Z,0
2016-03-27T03:36:15.312Z,0
2016-03-27T03:37:15.300Z,0
2016-03-27T03:38:15.302Z,0
2016-03-27T03:39:15.305Z,0
2016-03-27T03:40:15.308Z,0
2016-03-27T03:41:15.326Z,0
2016-03-27T03:42:15.313Z,0
2016-03-27T03:43:15.316Z,0
2016-03-27T03:44:15.303Z,0
2016-03-27T03:45:15.306Z,0
2016-03-27T03:46:15.309Z,0
2016-03-27T03:47:15.389Z,0
2016-03-27T03:48:15.298Z,0
2016-03-27T03:49:15.301Z,0
2016-03-27T03:50:15.288Z,0
2016-03-27T03:51:15.306Z,0
2016-03-27T03:52:15.294Z,0
2016-03-27T03:53:15.296Z,0
2016-03-27T03:54:15.314Z,0
2016-03-27T03:55:15.145Z,0
2016-03-27T03:56:15.304Z,0
2016-03-27T03:57:15.292Z,0
2016-03-27T03:58:15.294Z,0
2016-03-27T03:59:15.297Z,0
2016-03-27T04:00:15.283Z,0
2016-03-27T04:01:15.286Z,0
2016-03-27T04:02:15.930Z,0
2016-03-27T04:03:15.291Z,0
2016-03-27T04:04:15.279Z,0
2016-03-27T04:05:15.282Z,0
2016-03-27T04:06:15.285Z,0
2016-03-27T04:07:15.116Z,0
2016-03-27T04:08:15.292Z,0
2016-03-27T04:09:15.294Z,0
2016-03-27T04:10:15.281Z,0
2016-03-27T04:11:15.284Z,0
2016-03-27T04:12:15.302Z,0
2016-03-27T04:13:15.289Z,0
2016-03-27T04:14:15.308Z,0
2016-03-27T04:15:15.295Z,0
2016-03-27T04:16:15.297Z,0
2016-03-27T04:17:15.409Z,0
2016-03-27T04:18:15.272Z,0
2016-03-27T04:19:15.290Z,0
2016-03-27T04:20:15.277Z,0
2016-03-27T04:21:15.279Z,0
2016-03-27T04:22:15.283Z,0
2016-03-27T04:23:15.285Z,0
2016-03-27T04:24:15.288Z,0
2016-03-27T04:25:15.291Z,0
2016-03-27T04:26:15.293Z,0
2016-03-27T04:27:15.280Z,0
2016-03-27T04:28:15.283Z,0
2016-03-27T04:29:15.098Z,0
2016-03-27T04:30:15.256Z,0
2016-03-27T04:31:15.276Z,0
2016-03-27T04:32:15.215Z,0
2016-03-27T04:33:15.265Z,0
2016-03-27T04:34:15.268Z,0
2016-03-27T04:35:15.270Z,0
2016-03-27T04:36:15.273Z,0
2016-03-27T04:37:15.276Z,0
2016-03-27T04:38:15.279Z,4
2016-03-27T04:39:15.265Z,0
2016-03-27T04:40:15.268Z,0
2016-03-27T04:41:15.270Z,4
2016-03-27T04:42:15.274Z,4
2016-03-27T04:43:15.261Z,4
2016-03-27T04:44:15.263Z,4
2016-03-27T04:45:15.250Z,4
2016-03-27T04:46:15.253Z,4
2016-03-27T04:47:15.475Z,8
2016-03-27T04:48:15.258Z,8
2016-03-27T04:49:15.261Z,8
2016-03-27T04:50:15.264Z,12
2016-03-27T04:51:15.266Z,12
2016-03-27T04:52:15.269Z,12
2016-03-27T04:53:15.272Z,16
2016-03-27T04:54:15.274Z,20
2016-03-27T04:55:15.277Z,24
2016-03-27T04:56:15.280Z,28
2016-03-27T04:57:15.266Z,32
2016-03-27T04:58:15.269Z,36
2016-03-27T04:59:15.257Z,44
2016-03-27T05:00:15.243Z,56
2016-03-27T05:01:15.246Z,64
2016-03-27T05:02:15.312Z,72
2016-03-27T05:03:15.251Z,80
2016-03-27T05:04:15.254Z,96
2016-03-27T05:05:15.257Z,108
2016-03-27T05:06:15.259Z,124
2016-03-27T05:07:15.279Z,136
2016-03-27T05:08:15.265Z,156
2016-03-27T05:09:15.253Z,172
2016-03-27T05:10:15.256Z,192
2016-03-27T05:11:15.258Z,220
2016-03-27T05:12:15.245Z,244
2016-03-27T05:13:15.247Z,268
2016-03-27T05:14:15.250Z,296
2016-03-27T05:15:15.236Z,328
2016-03-27T05:16:15.240Z,360
2016-03-27T05:17:15.211Z,392
2016-03-27T05:18:15.245Z,428
2016-03-27T05:19:15.248Z,464
2016-03-27T05:20:15.235Z,500
2016-03-27T05:21:15.238Z,544
2016-03-27T05:22:15.241Z,636
2016-03-27T05:23:15.243Z,812
2016-03-27T05:24:15.246Z,1096
2016-03-27T05:25:15.249Z,1364
2016-03-27T05:26:15.251Z,1296
2016-03-27T05:27:15.255Z,1064
2016-03-27T05:28:15.257Z,1052
2016-03-27T05:29:15.227Z,1196
2016-03-27T05:30:15.231Z,1352
2016-03-27T05:31:15.233Z,1808
2016-03-27T05:32:15.267Z,2664
2016-03-27T05:33:15.238Z,3072
2016-03-27T05:34:15.241Z,3056
2016-03-27T05:35:15.229Z,3220
2016-03-27T05:36:15.232Z,3608
2016-03-27T05:37:15.234Z,3772
2016-03-27T05:38:15.236Z,3376
2016-03-27T05:39:15.240Z,2500
2016-03-27T05:40:15.242Z,1884
2016-03-27T05:41:15.259Z,1792
2016-03-27T05:42:15.263Z,1820
2016-03-27T05:43:15.265Z,1860
2016-03-27T05:44:15.253Z,1920
2016-03-27T05:45:15.240Z,2048
2016-03-27T05:46:15.227Z,2224
2016-03-27T05:47:15.136Z,2456
2016-03-27T05:48:15.232Z,2684
2016-03-27T05:49:15.250Z,2788
2016-03-27T05:50:15.238Z,2836
2016-03-27T05:51:15.241Z,2920
2016-03-27T05:52:15.243Z,2924
2016-03-27T05:53:15.231Z,2956
2016-03-27T05:54:15.233Z,3004
2016-03-27T05:55:15.251Z,3068
2016-03-27T05:56:15.269Z,3156
2016-03-27T05:57:15.257Z,3248
2016-03-27T05:58:15.243Z,3376
2016-03-27T05:59:15.246Z,3552
2016-03-27T06:00:15.249Z,3828
2016-03-27T06:01:15.251Z,4104
2016-03-27T06:02:15.271Z,4324
2016-03-27T06:03:15.241Z,4660
2016-03-27T06:04:15.228Z,5492
2016-03-27T06:05:15.232Z,7624
2016-03-27T06:06:15.234Z,11888
2016-03-27T06:07:15.236Z,15008
2016-03-27T06:08:15.240Z,13464
2016-03-27T06:09:15.242Z,13856
2016-03-27T06:10:15.260Z,11396
2016-03-27T06:11:15.248Z,11208
2016-03-27T06:12:15.250Z,11420
2016-03-27T06:13:15.237Z,10832
2016-03-27T06:14:15.240Z,11512
2016-03-27T06:15:15.242Z,12352
2016-03-27T06:16:15.244Z,11888
2016-03-27T06:17:15.248Z,13308
2016-03-27T06:18:15.250Z,13240
2016-03-27T06:19:15.253Z,12348
2016-03-27T06:20:15.256Z,11476
2016-03-27T06:21:15.258Z,10700
2016-03-27T06:22:15.261Z,10336
2016-03-27T06:23:15.280Z,11012
2016-03-27T06:24:15.266Z,12872
2016-03-27T06:25:15.253Z,11276
2016-03-27T06:26:15.272Z,11648
2016-03-27T06:27:15.274Z,12216
2016-03-27T06:28:15.278Z,10720
2016-03-27T06:29:15.280Z,10560
2016-03-27T06:30:15.282Z,9460
2016-03-27T06:31:15.270Z,9800
2016-03-27T06:32:15.272Z,8776
2016-03-27T06:33:15.274Z,8952
2016-03-27T06:34:15.278Z,7872
2016-03-27T06:35:15.280Z,7480
2016-03-27T06:36:15.283Z,8432
2016-03-27T06:37:15.285Z,7980
2016-03-27T06:38:15.304Z,8260
2016-03-27T06:39:15.307Z,8356
2016-03-27T06:40:15.325Z,7700
2016-03-27T06:41:15.312Z,7548
2016-03-27T06:42:15.299Z,7248
2016-03-27T06:43:15.333Z,7256
2016-03-27T06:44:15.321Z,7976
2016-03-27T06:45:15.307Z,8560
2016-03-27T06:46:15.310Z,6776
2016-03-27T06:47:15.328Z,6964
2016-03-27T06:48:15.331Z,7300
2016-03-27T06:49:15.334Z,6256
2016-03-27T06:50:15.321Z,6612
2016-03-27T06:51:15.339Z,6600
2016-03-27T06:52:15.326Z,6736
2016-03-27T06:53:15.328Z,7352
2016-03-27T06:54:15.347Z,6772
2016-03-27T06:55:15.333Z,6588
2016-03-27T06:56:15.353Z,6488
2016-03-27T06:57:15.339Z,5728
2016-03-27T06:58:15.341Z,5544
2016-03-27T06:59:15.361Z,5280
2016-03-27T07:00:15.347Z,5036
2016-03-27T07:01:15.350Z,4724
2016-03-27T07:02:15.338Z,4256
2016-03-27T07:03:15.340Z,3872
2016-03-27T07:04:15.358Z,3660
2016-03-27T07:05:15.361Z,3268
2016-03-27T07:06:15.363Z,3136
2016-03-27T07:07:15.366Z,2908
2016-03-27T07:08:15.385Z,1948
2016-03-27T07:09:15.372Z,1692
2016-03-27T07:10:15.374Z,1372
2016-03-27T07:11:15.376Z,1448
2016-03-27T07:12:15.380Z,1548
2016-03-27T07:13:15.382Z,1640
2016-03-27T07:14:15.369Z,1588
2016-03-27T07:15:15.388Z,1440
2016-03-27T07:16:15.390Z,1312
2016-03-27T07:17:15.393Z,1204
2016-03-27T07:18:15.381Z,1136
2016-03-27T07:19:15.398Z,1112
2016-03-27T07:20:15.417Z,1160
2016-03-27T07:21:15.404Z,1160
2016-03-27T07:22:15.406Z,1152
2016-03-27T07:23:15.394Z,1184
2016-03-27T07:24:15.397Z,1272
2016-03-27T07:25:15.415Z,1384
2016-03-27T07:26:15.402Z,1480
2016-03-27T07:27:15.405Z,1492
2016-03-27T07:28:15.408Z,1556
2016-03-27T07:29:15.411Z,1656
2016-03-27T07:30:15.412Z,1940
2016-03-27T07:31:15.416Z,2440
2016-03-27T07:32:15.402Z,2964
2016-03-27T07:33:15.405Z,3560
2016-03-27T07:34:15.424Z,3956
2016-03-27T07:35:15.441Z,3968
2016-03-27T07:36:15.429Z,3888
2016-03-27T07:37:15.432Z,3948
2016-03-27T07:38:15.434Z,4052
2016-03-27T07:39:15.421Z,4132
2016-03-27T07:40:15.424Z,4248
2016-03-27T07:41:15.426Z,4388
2016-03-27T07:42:15.446Z,4440
2016-03-27T07:43:15.432Z,4504
2016-03-27T07:44:15.434Z,4628
2016-03-27T07:45:15.454Z,4588
2016-03-27T07:46:15.440Z,4372
2016-03-27T07:47:15.442Z,4840
2016-03-27T07:48:15.445Z,4328
2016-03-27T07:49:15.464Z,4160
2016-03-27T07:50:15.498Z,4332
2016-03-27T07:51:15.469Z,4604
2016-03-27T07:52:15.456Z,4860
2016-03-27T07:53:15.444Z,5240
2016-03-27T07:54:15.446Z,5672
2016-03-27T07:55:15.449Z,7672
2016-03-27T07:56:15.452Z,7536
2016-03-27T07:57:15.454Z,9028
2016-03-27T07:58:15.458Z,7932
2016-03-27T07:59:15.460Z,7032
2016-03-27T08:00:15.462Z,6712
2016-03-27T08:01:15.450Z,6792
2016-03-27T08:02:15.468Z,6928
2016-03-27T08:03:15.470Z,7328
2016-03-27T08:04:15.488Z,7328
2016-03-27T08:05:15.476Z,6824
2016-03-27T08:06:15.478Z,6324
2016-03-27T08:07:15.466Z,6128
2016-03-27T08:08:15.468Z,6112
2016-03-27T08:09:15.470Z,6216
2016-03-27T08:10:15.474Z,6592
2016-03-27T08:11:15.476Z,6768
2016-03-27T08:12:15.478Z,6992
2016-03-27T08:13:15.482Z,7592
2016-03-27T08:14:15.484Z,8112
2016-03-27T08:15:15.487Z,8480
2016-03-27T08:16:15.506Z,8412
2016-03-27T08:17:15.492Z,8404
2016-03-27T08:18:15.495Z,8256
2016-03-27T08:19:15.498Z,7952
2016-03-27T08:20:15.516Z,7680
2016-03-27T08:21:15.503Z,7528
2016-03-27T08:22:15.522Z,7432
2016-03-27T08:23:15.509Z,7228
2016-03-27T08:24:15.511Z,6948
2016-03-27T08:25:15.514Z,6860
2016-03-27T08:26:15.516Z,7184
2016-03-27T08:27:15.519Z,7328
2016-03-27T08:28:15.522Z,7340
2016-03-27T08:29:15.524Z,7480
2016-03-27T08:30:15.527Z,7964
2016-03-27T08:31:15.530Z,7724
2016-03-27T08:32:15.533Z,6816
2016-03-27T08:33:15.582Z,6164
2016-03-27T08:34:15.538Z,5828
2016-03-27T08:35:15.541Z,5660
2016-03-27T08:36:15.543Z,5520
2016-03-27T08:37:15.546Z,5432
2016-03-27T08:38:15.533Z,5572
2016-03-27T08:39:15.551Z,5820
2016-03-27T08:40:15.555Z,6224
2016-03-27T08:41:15.557Z,6956
2016-03-27T08:42:15.543Z,7088
2016-03-27T08:43:15.546Z,7288
2016-03-27T08:44:15.565Z,7744
2016-03-27T08:45:15.567Z,8080
2016-03-27T08:46:15.570Z,8108
2016-03-27T08:47:15.573Z,7948
2016-03-27T08:48:15.575Z,8136
2016-03-27T08:49:15.579Z,7580
2016-03-27T08:50:15.643Z,7672
2016-03-27T08:51:15.567Z,7544
2016-03-27T08:52:15.587Z,7748
2016-03-27T08:53:15.636Z,7856
2016-03-27T08:54:15.450Z,7756
2016-03-27T08:55:15.579Z,6976
2016-03-27T08:56:15.597Z,7136
2016-03-27T08:57:15.866Z,7128
2016-03-27T08:58:15.603Z,6868
2016-03-27T08:59:15.527Z,7488
2016-03-27T09:00:15.592Z,8176
2016-03-27T09:01:15.594Z,9668
2016-03-27T09:02:15.629Z,9848
2016-03-27T09:03:15.850Z,10616
2016-03-27T09:04:15.618Z,10428
2016-03-27T09:05:15.622Z,10240
2016-03-27T09:06:15.624Z,9848
2016-03-27T09:07:15.627Z,8860
2016-03-27T09:08:15.627Z,9448
2016-03-27T09:09:15.614Z,10436
2016-03-27T09:10:15.633Z,11780
2016-03-27T09:11:15.635Z,11356
2016-03-27T09:12:15.638Z,10204
2016-03-27T09:13:15.641Z,9452
2016-03-27T09:14:15.644Z,8888
2016-03-27T09:15:15.662Z,8580
2016-03-27T09:16:15.665Z,8076
2016-03-27T09:17:15.668Z,7768
2016-03-27T09:18:15.810Z,7136
2016-03-27T09:19:15.657Z,6608
2016-03-27T09:20:15.660Z,6472
2016-03-27T09:21:15.662Z,6540
2016-03-27T09:22:15.666Z,6784
2016-03-27T09:23:15.668Z,7184
2016-03-27T09:24:15.666Z,7516
2016-03-27T09:25:15.657Z,7876
2016-03-27T09:26:15.647Z,8088
2016-03-27T09:27:15.638Z,8504
2016-03-27T09:28:15.629Z,8684
2016-03-27T09:29:15.623Z,8756
2016-03-27T09:30:15.653Z,8828
2016-03-27T09:31:15.651Z,8904
2016-03-27T09:32:15.649Z,9092
2016-03-27T09:33:16.179Z,9172
2016-03-27T09:34:15.632Z,9392
2016-03-27T09:35:15.633Z,9464
2016-03-27T09:36:15.649Z,9492
2016-03-27T09:37:15.636Z,9484
2016-03-27T09:38:15.652Z,9428
2016-03-27T09:39:15.639Z,9480
2016-03-27T09:40:15.656Z,9408
2016-03-27T09:41:15.674Z,9212
2016-03-27T09:42:15.661Z,9056
2016-03-27T09:43:15.662Z,9032
2016-03-27T09:44:15.664Z,9064
2016-03-27T09:45:15.667Z,9040
2016-03-27T09:46:15.669Z,8808
2016-03-27T09:47:15.672Z,8864
2016-03-27T09:48:16.112Z,9008
2016-03-27T09:49:15.676Z,8956
2016-03-27T09:50:15.679Z,8416
2016-03-27T09:51:15.698Z,7804
2016-03-27T09:52:15.685Z,8740
2016-03-27T09:53:15.703Z,8996
2016-03-27T09:54:15.706Z,8800
2016-03-27T09:55:15.708Z,8688
2016-03-27T09:56:15.712Z,8632
2016-03-27T09:57:15.714Z,8444
2016-03-27T09:58:15.731Z,8200
2016-03-27T09:59:15.720Z,7932
2016-03-27T10:00:15.737Z,7856
2016-03-27T10:01:15.568Z,7840
2016-03-27T10:02:15.728Z,8080
2016-03-27T10:03:22.152Z,7832
2016-03-27T10:04:15.748Z,7980
2016-03-27T10:05:15.736Z,7812
2016-03-27T10:06:15.769Z,7784
2016-03-27T10:07:15.756Z,7508
2016-03-27T10:08:15.759Z,7252
2016-03-27T10:09:15.761Z,6788
2016-03-27T10:10:15.764Z,6496
2016-03-27T10:11:15.783Z,6312
2016-03-27T10:12:15.769Z,6200
2016-03-27T10:13:15.788Z,6544
2016-03-27T10:14:15.775Z,6176
2016-03-27T10:15:15.777Z,6540
2016-03-27T10:16:15.812Z,6336
2016-03-27T10:17:15.799Z,6188
2016-03-27T10:18:16.332Z,6240
2016-03-27T10:19:15.820Z,6460
2016-03-27T10:20:15.807Z,6600
2016-03-27T10:21:15.825Z,7052
2016-03-27T10:22:15.813Z,7252
2016-03-27T10:23:15.815Z,7356
2016-03-27T10:24:15.817Z,7480
2016-03-27T10:25:15.837Z,7324
2016-03-27T10:26:15.839Z,7368
2016-03-27T10:27:15.841Z,7280
2016-03-27T10:28:15.845Z,7044
2016-03-27T10:29:15.847Z,6860
2016-03-27T10:30:15.834Z,6820
2016-03-27T10:31:15.852Z,6764
2016-03-27T10:32:15.855Z,6892
2016-03-27T10:33:15.997Z,7128
2016-03-27T10:34:15.861Z,7460
2016-03-27T10:35:15.863Z,7696
2016-03-27T10:36:15.880Z,8048
2016-03-27T10:37:15.869Z,8364
2016-03-27T10:38:15.871Z,8692
2016-03-27T10:39:15.889Z,9320
2016-03-27T10:40:15.877Z,9468
2016-03-27T10:41:15.894Z,9504
2016-03-27T10:42:15.897Z,9344
2016-03-27T10:43:15.885Z,9144
2016-03-27T10:44:15.902Z,9116
2016-03-27T10:45:15.905Z,9092
2016-03-27T10:46:15.908Z,9052
2016-03-27T10:47:15.927Z,9172
2016-03-27T10:48:15.977Z,9104
2016-03-27T10:49:15.916Z,9100
2016-03-27T10:50:15.934Z,9200
2016-03-27T10:51:15.937Z,9116
2016-03-27T10:52:15.940Z,8896
2016-03-27T10:53:15.942Z,8944
2016-03-27T10:54:15.945Z,9076
2016-03-27T10:55:15.948Z,9120
2016-03-27T10:56:15.951Z,9232
2016-03-27T10:57:15.953Z,9344
2016-03-27T10:58:15.987Z,9408
2016-03-27T10:59:15.975Z,9720
2016-03-27T11:00:15.977Z,10056
2016-03-27T11:01:15.995Z,10496
2016-03-27T11:02:15.998Z,10512
2016-03-27T11:03:16.016Z,10856
2016-03-27T11:04:16.004Z,10560
2016-03-27T11:05:16.006Z,10840
2016-03-27T11:06:16.008Z,10736
2016-03-27T11:07:15.997Z,9896
2016-03-27T11:08:15.999Z,9800
2016-03-27T11:09:16.016Z,10080
2016-03-27T11:10:16.019Z,9876
2016-03-27T11:11:16.069Z,9960
2016-03-27T11:12:16.025Z,10060
2016-03-27T11:13:16.027Z,10100
2016-03-27T11:14:16.046Z,9836
2016-03-27T11:15:16.033Z,9840
2016-03-27T11:16:16.035Z,10012
2016-03-27T11:17:16.054Z,9936
2016-03-27T11:18:16.072Z,9328
2016-03-27T11:19:16.043Z,8460
2016-03-27T11:20:16.063Z,7808
2016-03-27T11:21:16.080Z,7664
2016-03-27T11:22:16.067Z,7916
2016-03-27T11:23:16.071Z,7988
2016-03-27T11:24:16.088Z,8004
2016-03-27T11:25:16.075Z,8136
2016-03-27T11:26:16.109Z,8452
2016-03-27T11:27:16.081Z,8868
2016-03-27T11:28:16.099Z,9252
2016-03-27T11:29:16.101Z,9396
2016-03-27T11:30:16.104Z,9236
2016-03-27T11:31:15.967Z,9168
2016-03-27T11:32:16.109Z,9040
2016-03-27T11:33:16.003Z,8872
2016-03-27T11:34:16.115Z,8664
2016-03-27T11:35:16.118Z,8648
2016-03-27T11:36:16.153Z,8540
2016-03-27T11:37:16.139Z,8348
2016-03-27T11:38:16.125Z,7680
2016-03-27T11:39:15.988Z,7564
2016-03-27T11:40:16.147Z,7596
2016-03-27T11:41:16.166Z,7296
2016-03-27T11:42:16.152Z,7180
2016-03-27T11:43:16.202Z,7488
2016-03-27T11:44:16.174Z,7636
2016-03-27T11:45:16.160Z,7512
2016-03-27T11:46:16.194Z,7452
2016-03-27T11:47:16.182Z,7656
2016-03-27T11:48:16.199Z,7688
2016-03-27T11:49:16.187Z,7636
2016-03-27T11:50:16.190Z,7556
2016-03-27T11:51:16.208Z,7600
2016-03-27T11:52:16.195Z,7896
2016-03-27T11:53:16.213Z,8452
2016-03-27T11:54:16.216Z,8008
2016-03-27T11:55:16.218Z,7676
2016-03-27T11:56:16.221Z,7188
2016-03-27T11:57:16.224Z,6800
2016-03-27T11:58:16.212Z,6952
2016-03-27T11:59:16.245Z,7164
2016-03-27T12:00:16.232Z,7136
2016-03-27T12:01:16.235Z,6832
2016-03-27T12:02:16.253Z,6380
2016-03-27T12:03:16.271Z,5932
2016-03-27T12:04:16.275Z,5872
2016-03-27T12:05:16.261Z,6152
2016-03-27T12:06:16.295Z,6740
2016-03-27T12:07:16.267Z,7396
2016-03-27T12:08:16.269Z,7904
2016-03-27T12:09:16.288Z,7360
2016-03-27T12:10:16.275Z,8160
2016-03-27T12:11:16.309Z,8596
2016-03-27T12:12:16.296Z,8480
2016-03-27T12:13:16.283Z,8392
2016-03-27T12:14:16.316Z,8232
2016-03-27T12:15:16.304Z,7764
2016-03-27T12:16:16.290Z,7072
2016-03-27T12:17:16.325Z,7136
2016-03-27T12:18:16.343Z,6860
2016-03-27T12:19:16.315Z,6356
2016-03-27T12:20:16.332Z,6728
2016-03-27T12:21:16.336Z,6160
2016-03-27T12:22:16.354Z,6132
2016-03-27T12:23:16.325Z,7048
2016-03-27T12:24:16.360Z,6864
2016-03-27T12:25:16.331Z,7032
2016-03-27T12:26:16.364Z,7128
2016-03-27T12:27:16.351Z,7184
2016-03-27T12:28:16.370Z,6552
2016-03-27T12:29:16.357Z,6228
2016-03-27T12:30:16.375Z,5656
2016-03-27T12:31:16.362Z,5696
2016-03-27T12:32:16.381Z,5632
2016-03-27T12:33:16.367Z,5508
2016-03-27T12:34:16.386Z,5348
2016-03-27T12:35:16.389Z,5408
2016-03-27T12:36:16.407Z,5380
2016-03-27T12:37:16.394Z,5896
2016-03-27T12:38:16.397Z,6536
2016-03-27T12:39:16.431Z,6676
2016-03-27T12:40:16.417Z,6760
2016-03-27T12:41:16.405Z,6584
2016-03-27T12:42:16.438Z,6492
2016-03-27T12:43:16.426Z,6212
2016-03-27T12:44:16.428Z,6068
2016-03-27T12:45:16.462Z,5956
2016-03-27T12:46:16.433Z,5744
2016-03-27T12:47:16.436Z,5588
2016-03-27T12:48:16.455Z,5556
2016-03-27T12:49:16.441Z,5632
2016-03-27T12:50:16.461Z,5764
2016-03-27T12:51:16.463Z,6156
2016-03-27T12:52:16.465Z,6544
2016-03-27T12:53:16.485Z,6956
2016-03-27T12:54:16.455Z,7360
2016-03-27T12:55:16.474Z,7844
2016-03-27T12:56:16.492Z,7976
2016-03-27T12:57:16.479Z,8184
2016-03-27T12:58:16.498Z,8312
2016-03-27T12:59:16.515Z,8276
2016-03-27T13:00:16.503Z,8068
2016-03-27T13:01:16.490Z,7616
2016-03-27T13:02:16.555Z,7308
2016-03-27T13:03:16.511Z,6892
2016-03-27T13:04:16.529Z,6772
2016-03-27T13:05:16.532Z,6680
2016-03-27T13:06:16.519Z,6732
2016-03-27T13:07:16.522Z,6724
2016-03-27T13:08:16.555Z,6744
2016-03-27T13:09:16.542Z,6512
2016-03-27T13:10:16.530Z,6144
2016-03-27T13:11:16.580Z,5908
2016-03-27T13:12:16.550Z,5828
2016-03-27T13:13:16.538Z,5920
2016-03-27T13:14:16.572Z,6024
2016-03-27T13:15:16.574Z,6164
2016-03-27T13:16:16.561Z,6428
2016-03-27T13:17:16.564Z,6644
2016-03-27T13:18:16.599Z,6804
2016-03-27T13:19:16.570Z,6908
2016-03-27T13:20:16.588Z,7024
2016-03-27T13:21:16.591Z,7160
2016-03-27T13:22:16.593Z,7060
2016-03-27T13:23:16.595Z,6920
2016-03-27T13:24:16.583Z,6784
2016-03-27T13:25:16.601Z,6688
2016-03-27T13:26:16.604Z,6552
2016-03-27T13:27:16.623Z,5988
2016-03-27T13:28:16.626Z,5680
2016-03-27T13:29:16.628Z,5616
2016-03-27T13:30:16.630Z,5600
2016-03-27T13:31:16.634Z,5476
2016-03-27T13:32:16.636Z,5268
2016-03-27T13:33:16.639Z,5064
2016-03-27T13:34:16.642Z,4824
2016-03-27T13:35:16.644Z,4720
2016-03-27T13:36:16.647Z,4412
2016-03-27T13:37:16.649Z,4004
2016-03-27T13:38:16.667Z,3780
2016-03-27T13:39:16.655Z,3668
2016-03-27T13:40:16.673Z,3564
2016-03-27T13:41:16.722Z,3480
2016-03-27T13:42:16.694Z,3396
2016-03-27T13:43:16.681Z,3340
2016-03-27T13:44:16.683Z,3308
2016-03-27T13:45:16.686Z,3400
2016-03-27T13:46:16.689Z,3296
2016-03-27T13:47:30.867Z,3252